Time;durP1;ratioP1;P1;durP2;ratioP2;P2;SDS_P1;SDS_P2;PMS_P1;PMS_P2;Temp;Humidity;BMP_temperature;BMP_pressure;BME280_temperature;BME280_humidity;BME280_pressure;Samples;Min_cycle;Max_cycle;Signal;HPM_P1;HPM_P2
2024/01/18 00:01:13;;;;;;;11.07;4.35;;;-0.30;99.90;;;;;;5050811;28;20120;-71
2024/01/18 00:03:42;;;;;;;12.93;7.07;;;-0.30;99.90;;;;;;5050930;28;20135;-72
2024/01/18 00:06:08;;;;;;;12.45;7.07;;;0.30;99.90;;;;;;5053105;28;20131;-71
2024/01/18 00:08:34;;;;;;;14.30;7.35;;;-0.30;99.90;;;;;;5084835;28;20073;-71
2024/01/18 00:11:00;;;;;;;13.50;7.32;;;-0.20;99.90;;;;;;5068421;28;20040;-71
2024/01/18 00:13:27;;;;;;;12.57;6.30;;;-0.40;99.90;;;;;;5052039;28;20103;-71
2024/01/18 00:15:52;;;;;;;9.55;5.60;;;-0.40;99.90;;;;;;5068070;28;20146;-71
2024/01/18 00:18:19;;;;;;;11.35;4.40;;;-0.40;99.90;;;;;;5034366;28;20108;-71
2024/01/18 00:20:44;;;;;;;11.32;4.03;;;-0.40;99.90;;;;;;5051313;28;20049;-72
2024/01/18 00:23:10;;;;;;;7.30;3.50;;;-0.40;99.90;;;;;;5051513;28;20067;-71
2024/01/18 00:25:36;;;;;;;5.60;2.60;;;-0.40;99.90;;;;;;5050791;28;20132;-71
2024/01/18 00:28:02;;;;;;;8.27;3.20;;;-0.30;99.90;;;;;;5052031;28;20048;-71
2024/01/18 00:30:28;;;;;;;5.95;2.47;;;-0.40;99.90;;;;;;5050792;28;20047;-72
2024/01/18 00:32:53;;;;;;;6.65;2.53;;;-0.30;99.90;;;;;;5050850;28;20123;-71
2024/01/18 00:35:19;;;;;;;6.13;2.15;;;-0.30;99.90;;;;;;5050896;28;20053;-72
2024/01/18 00:37:46;;;;;;;7.25;2.30;;;-0.30;99.90;;;;;;5036998;28;20135;-71
2024/01/18 00:40:15;;;;;;;7.20;2.53;;;-0.30;99.90;;;;;;5034551;28;20045;-71
2024/01/18 00:42:41;;;;;;;6.78;2.05;;;-0.30;99.90;;;;;;5050417;28;20048;-71
2024/01/18 00:45:07;;;;;;;4.57;2.05;;;-0.30;99.90;;;;;;5050905;28;20462;-71
2024/01/18 00:47:33;;;;;;;7.10;2.83;;;-0.20;99.90;;;;;;5051888;28;20041;-71
2024/01/18 00:49:59;;;;;;;8.63;2.97;;;0.40;99.90;;;;;;5050666;28;20136;-71
2024/01/18 00:52:25;;;;;;;6.40;3.15;;;-0.30;99.90;;;;;;5051378;28;20123;-72
2024/01/18 00:54:51;;;;;;;8.18;3.15;;;-0.30;99.90;;;;;;5050016;28;20040;-71
2024/01/18 00:57:16;;;;;;;6.55;3.03;;;-0.30;99.90;;;;;;5050779;28;20041;-71
2024/01/18 00:59:42;;;;;;;9.15;3.13;;;-0.30;99.90;;;;;;5066680;28;20080;-71
2024/01/18 01:02:08;;;;;;;13.73;3.60;;;-0.30;99.90;;;;;;5050572;28;20082;-71
2024/01/18 01:04:34;;;;;;;8.75;3.10;;;-0.30;99.90;;;;;;5049023;28;20477;-71
2024/01/18 01:07:00;;;;;;;7.28;3.05;;;0.40;99.90;;;;;;5049148;28;20037;-72
2024/01/18 01:09:25;;;;;;;6.97;3.05;;;0.00;99.90;;;;;;5049563;28;20041;-71
2024/01/18 01:11:52;;;;;;;8.43;3.53;;;-0.30;99.90;;;;;;5050912;28;20041;-72
2024/01/18 01:14:18;;;;;;;6.60;3.28;;;-0.40;99.90;;;;;;5067284;28;20033;-71
2024/01/18 01:16:44;;;;;;;5.70;3.17;;;-0.40;99.90;;;;;;5050131;28;20056;-71
2024/01/18 01:19:10;;;;;;;5.22;3.13;;;0.00;99.90;;;;;;5051432;28;20125;-71
2024/01/18 01:21:35;;;;;;;7.07;3.03;;;-0.50;99.90;;;;;;5066951;28;20124;-71
2024/01/18 01:24:02;;;;;;;7.05;2.60;;;-0.50;99.90;;;;;;5050700;28;20033;-71
2024/01/18 01:26:28;;;;;;;5.75;2.42;;;-0.50;99.90;;;;;;5049058;28;20086;-71
2024/01/18 01:28:54;;;;;;;5.72;2.30;;;0.00;99.90;;;;;;5050372;28;20451;-72
2024/01/18 01:31:20;;;;;;;7.25;2.67;;;-0.50;99.90;;;;;;5050654;28;20052;-71
2024/01/18 01:33:47;;;;;;;9.75;2.35;;;-0.50;99.90;;;;;;5049087;28;20371;-72
2024/01/18 01:36:13;;;;;;;8.48;2.80;;;-0.50;99.90;;;;;;5047827;28;20083;-71
2024/01/18 01:38:38;;;;;;;7.55;2.28;;;-0.60;99.90;;;;;;5074587;28;20048;-71
2024/01/18 01:41:05;;;;;;;7.07;2.30;;;-0.50;99.90;;;;;;5049833;28;20382;-71
2024/01/18 01:43:31;;;;;;;11.10;2.50;;;-0.60;99.90;;;;;;5049534;28;20049;-71
2024/01/18 01:45:57;;;;;;;7.25;2.25;;;-0.30;99.90;;;;;;5083690;28;20068;-71
2024/01/18 01:48:23;;;;;;;6.40;2.15;;;0.10;99.90;;;;;;5051081;28;20041;-71
2024/01/18 01:50:49;;;;;;;5.90;1.95;;;-0.50;99.90;;;;;;5050829;28;20053;-71
2024/01/18 01:53:16;;;;;;;8.00;2.20;;;-0.50;99.90;;;;;;5050537;28;20084;-71
2024/01/18 01:55:43;;;;;;;4.75;1.70;;;-0.50;99.90;;;;;;5039585;28;20084;-71
2024/01/18 01:58:11;;;;;;;7.32;2.10;;;-0.40;99.90;;;;;;5049923;28;20471;-71
2024/01/18 02:00:37;;;;;;;6.68;1.90;;;-0.40;99.90;;;;;;5048707;28;20044;-71
2024/01/18 02:03:03;;;;;;;4.07;1.70;;;-0.40;99.90;;;;;;5047351;28;20114;-71
2024/01/18 02:05:30;;;;;;;6.60;1.90;;;-0.40;99.90;;;;;;5058767;28;20037;-73
2024/01/18 02:07:55;;;;;;;5.97;1.58;;;-0.30;99.90;;;;;;5051319;28;20043;-71
2024/01/18 02:10:22;;;;;;;6.28;1.58;;;-0.30;99.90;;;;;;5083203;28;20212;-71
2024/01/18 02:12:50;;;;;;;8.65;1.90;;;-0.30;99.90;;;;;;5050131;28;20049;-71
2024/01/18 02:15:15;;;;;;;6.28;2.15;;;-0.20;99.90;;;;;;5041817;28;20037;-71
2024/01/18 02:17:43;;;;;;;6.50;1.70;;;-0.30;99.90;;;;;;5030648;28;20345;-71
2024/01/18 02:20:09;;;;;;;8.55;1.88;;;-0.20;99.90;;;;;;5025161;28;20045;-71
2024/01/18 02:22:47;;;;;;;4.78;1.55;;;-0.30;99.90;;;;;;5046106;28;20041;-71
2024/01/18 02:25:27;;;;;;;4.65;2.05;;;-0.40;99.90;;;;;;5038114;28;20029;-71
2024/01/18 02:27:57;;;;;;;5.30;1.90;;;-0.30;99.90;;;;;;5044934;28;20049;-71
2024/01/18 02:30:23;;;;;;;6.28;2.10;;;0.10;99.90;;;;;;5072212;28;20117;-71
2024/01/18 02:32:48;;;;;;;9.77;2.05;;;-0.40;99.90;;;;;;5062265;28;20043;-71
2024/01/18 02:35:15;;;;;;;7.80;1.90;;;-0.50;99.90;;;;;;5053757;28;20362;-71
2024/01/18 02:37:41;;;;;;;4.50;2.25;;;0.10;99.90;;;;;;5052817;28;20056;-71
2024/01/18 02:40:07;;;;;;;5.28;2.15;;;-0.50;99.90;;;;;;5046055;28;20050;-71
2024/01/18 02:42:33;;;;;;;5.97;1.90;;;-0.50;99.90;;;;;;5047321;28;20124;-73
2024/01/18 02:44:59;;;;;;;5.75;1.92;;;-0.50;99.90;;;;;;5053850;28;20116;-70
2024/01/18 02:47:25;;;;;;;6.38;2.25;;;-0.10;99.90;;;;;;5087022;28;20056;-70
2024/01/18 02:49:51;;;;;;;8.38;2.03;;;-0.60;99.90;;;;;;5051899;28;20044;-71
2024/01/18 02:52:18;;;;;;;10.55;2.13;;;-0.60;99.90;;;;;;5054340;28;20040;-72
2024/01/18 02:54:43;;;;;;;6.30;2.30;;;-0.60;99.90;;;;;;5052823;28;20059;-71
2024/01/18 02:57:09;;;;;;;5.03;2.00;;;-0.60;99.90;;;;;;5069622;28;20033;-71
2024/01/18 02:59:35;;;;;;;6.88;1.85;;;-0.60;99.90;;;;;;5069025;28;20120;-71
2024/01/18 03:02:01;;;;;;;5.10;2.03;;;-0.60;99.90;;;;;;5052358;28;20124;-71
2024/01/18 03:04:26;;;;;;;8.70;1.80;;;-0.70;99.90;;;;;;5054265;28;20052;-70
2024/01/18 03:06:52;;;;;;;5.07;1.73;;;0.00;99.90;;;;;;5055056;28;20041;-71
2024/01/18 03:09:18;;;;;;;4.00;1.65;;;-0.70;99.90;;;;;;5053704;28;20036;-71
2024/01/18 03:11:43;;;;;;;12.25;2.10;;;-0.70;99.90;;;;;;5053074;28;20048;-71
2024/01/18 03:14:09;;;;;;;8.25;1.70;;;-0.50;99.90;;;;;;5069405;28;20457;-70
2024/01/18 03:16:36;;;;;;;7.80;1.95;;;-0.50;99.90;;;;;;5036086;28;20371;-71
2024/01/18 03:19:02;;;;;;;7.05;1.60;;;-0.70;99.90;;;;;;5052070;28;20056;-70
2024/01/18 03:21:28;;;;;;;6.72;1.70;;;-0.50;99.90;;;;;;5051980;28;20037;-71
2024/01/18 03:23:53;;;;;;;4.22;1.58;;;-0.60;99.90;;;;;;5042232;28;20034;-71
2024/01/18 03:26:19;;;;;;;7.10;1.85;;;-0.70;99.90;;;;;;5059125;28;20041;-70
2024/01/18 03:28:44;;;;;;;7.47;1.60;;;-0.10;99.90;;;;;;5052584;28;20040;-72
2024/01/18 03:31:12;;;;;;;6.65;1.85;;;-0.70;99.90;;;;;;5052157;28;20052;-70
2024/01/18 03:33:38;;;;;;;4.78;1.50;;;-0.70;99.90;;;;;;5052033;28;20133;-71
2024/01/18 03:36:04;;;;;;;6.88;1.55;;;-0.70;99.90;;;;;;5052004;28;20045;-70
2024/01/18 03:38:29;;;;;;;6.40;1.65;;;-0.70;99.90;;;;;;5053325;28;20190;-71
2024/01/18 03:40:55;;;;;;;7.22;1.65;;;-0.70;99.90;;;;;;5046834;28;20124;-71
2024/01/18 03:43:21;;;;;;;5.00;1.50;;;-0.70;99.90;;;;;;5052079;28;20043;-71
2024/01/18 03:45:47;;;;;;;9.68;1.80;;;-0.70;99.90;;;;;;5035433;28;20478;-73
2024/01/18 03:48:13;;;;;;;5.65;1.50;;;-0.60;99.90;;;;;;5052043;28;20067;-71
2024/01/18 03:50:38;;;;;;;4.07;1.65;;;-0.60;99.90;;;;;;5053060;28;20059;-71
2024/01/18 03:53:04;;;;;;;6.78;1.63;;;-0.50;99.90;;;;;;5067693;28;20482;-71
2024/01/18 03:55:30;;;;;;;6.82;1.83;;;-0.50;99.90;;;;;;5052077;28;20053;-71
2024/01/18 03:57:57;;;;;;;8.10;1.90;;;0.30;99.90;;;;;;5051300;28;20041;-71
2024/01/18 04:00:23;;;;;;;6.78;1.83;;;-0.40;99.90;;;;;;5051315;28;20052;-71
2024/01/18 04:02:48;;;;;;;10.23;2.13;;;-0.30;99.90;;;;;;5052561;28;20044;-73
2024/01/18 04:05:14;;;;;;;6.10;1.50;;;-0.30;99.90;;;;;;5051739;28;20045;-71
2024/01/18 04:07:40;;;;;;;9.18;1.88;;;-0.30;99.90;;;;;;5051926;28;20350;-71
2024/01/18 04:10:07;;;;;;;8.27;1.52;;;-0.30;99.90;;;;;;5084205;28;20132;-71
2024/01/18 04:12:34;;;;;;;10.52;1.85;;;-0.20;99.90;;;;;;5051486;28;20104;-71
2024/01/18 04:15:00;;;;;;;8.23;1.58;;;-0.10;99.90;;;;;;5034634;28;20056;-71
2024/01/18 04:17:25;;;;;;;6.43;1.60;;;-0.20;99.90;;;;;;5052109;28;20486;-71
2024/01/18 04:19:51;;;;;;;6.30;1.70;;;-0.20;99.90;;;;;;5051354;28;20045;-73
2024/01/18 04:22:17;;;;;;;5.20;1.20;;;0.40;99.90;;;;;;5050853;28;20041;-71
2024/01/18 04:24:45;;;;;;;3.58;1.20;;;-0.10;99.90;;;;;;5034897;28;20041;-71
2024/01/18 04:27:11;;;;;;;2.97;1.20;;;-0.10;99.90;;;;;;5050833;28;20052;-71
2024/01/18 04:29:36;;;;;;;5.32;1.40;;;0.00;99.90;;;;;;5048443;28;20048;-71
2024/01/18 04:32:02;;;;;;;2.55;1.13;;;-0.10;99.90;;;;;;5044917;28;20040;-71
2024/01/18 04:34:28;;;;;;;3.72;1.02;;;0.00;99.90;;;;;;5050953;28;20036;-71
2024/01/18 04:36:53;;;;;;;4.28;1.33;;;0.00;99.90;;;;;;5051490;28;20119;-76
2024/01/18 04:39:19;;;;;;;5.13;1.00;;;0.00;99.90;;;;;;5047851;28;20055;-71
2024/01/18 04:41:45;;;;;;;4.88;1.30;;;0.00;99.90;;;;;;5051150;28;20036;-70
2024/01/18 04:44:10;;;;;;;4.57;1.10;;;-0.10;99.90;;;;;;5050370;28;20037;-70
2024/01/18 04:46:36;;;;;;;2.58;1.00;;;-0.10;99.90;;;;;;5051058;28;20124;-70
2024/01/18 04:49:02;;;;;;;2.83;1.20;;;-0.10;99.90;;;;;;5051314;28;20041;-71
2024/01/18 04:51:28;;;;;;;4.10;1.10;;;-0.10;99.90;;;;;;5051613;28;20366;-71
2024/01/18 04:53:53;;;;;;;5.00;1.30;;;-0.20;99.90;;;;;;5034769;28;20120;-71
2024/01/18 04:56:20;;;;;;;1.77;0.90;;;-0.30;99.90;;;;;;5050013;28;20033;-72
2024/01/18 04:58:46;;;;;;;4.32;1.13;;;-0.30;99.90;;;;;;5052202;28;20389;-71
2024/01/18 05:01:12;;;;;;;2.72;1.15;;;-0.30;99.90;;;;;;5066463;28;20071;-71
2024/01/18 05:03:38;;;;;;;5.57;1.30;;;-0.30;99.90;;;;;;5051883;28;20047;-71
2024/01/18 05:06:04;;;;;;;2.35;1.10;;;-0.30;99.90;;;;;;5049916;28;20504;-71
2024/01/18 05:08:29;;;;;;;3.75;1.13;;;-0.40;99.90;;;;;;5033854;28;20444;-71
2024/01/18 05:10:55;;;;;;;1.83;1.00;;;-0.40;99.90;;;;;;5050770;28;20185;-72
2024/01/18 05:13:21;;;;;;;5.88;1.20;;;-0.40;99.90;;;;;;5049846;28;20080;-71
2024/01/18 05:15:47;;;;;;;1.45;1.13;;;-0.40;99.90;;;;;;5051516;28;20037;-71
2024/01/18 05:18:14;;;;;;;2.63;1.10;;;-0.40;99.90;;;;;;5050745;28;20091;-71
2024/01/18 05:20:40;;;;;;;5.53;1.30;;;-0.10;99.90;;;;;;5033653;28;21247;-71
2024/01/18 05:23:06;;;;;;;2.97;1.08;;;-0.40;99.90;;;;;;5051208;28;20044;-71
2024/01/18 05:25:32;;;;;;;3.85;1.15;;;-0.40;99.90;;;;;;5041145;28;20053;-71
2024/01/18 05:28:00;;;;;;;3.20;1.10;;;-0.30;99.90;;;;;;5072018;28;20074;-71
2024/01/18 05:30:26;;;;;;;5.95;1.63;;;0.40;99.90;;;;;;5050658;28;20052;-71
2024/01/18 05:32:52;;;;;;;3.47;1.20;;;0.20;99.90;;;;;;5059718;28;20442;-71
2024/01/18 05:35:18;;;;;;;1.77;1.17;;;-0.10;99.90;;;;;;5042605;28;20041;-71
2024/01/18 05:37:43;;;;;;;1.98;1.13;;;-0.40;99.90;;;;;;5068880;28;20355;-71
2024/01/18 05:40:10;;;;;;;3.65;1.42;;;-0.30;99.90;;;;;;5038884;28;20071;-71
2024/01/18 05:42:35;;;;;;;4.00;1.50;;;-0.40;99.90;;;;;;5047932;28;20210;-73
2024/01/18 05:45:01;;;;;;;5.45;1.67;;;-0.40;99.90;;;;;;5051270;28;20566;-71
2024/01/18 05:47:27;;;;;;;5.45;1.40;;;-0.40;99.90;;;;;;5049144;28;20041;-71
2024/01/18 05:49:52;;;;;;;4.07;1.40;;;0.70;99.90;;;;;;5076131;28;20103;-71
2024/01/18 05:52:18;;;;;;;5.45;1.42;;;-0.10;99.90;;;;;;5044835;28;20119;-71
2024/01/18 05:54:44;;;;;;;7.90;1.50;;;-0.50;99.90;;;;;;5069038;28;20041;-71
2024/01/18 05:57:10;;;;;;;5.47;1.73;;;-0.50;99.90;;;;;;5050716;28;20395;-71
2024/01/18 05:59:35;;;;;;;6.15;1.30;;;-0.50;99.90;;;;;;5063855;28;20040;-71
2024/01/18 06:02:01;;;;;;;7.28;2.00;;;-0.50;99.90;;;;;;5053993;28;20086;-70
2024/01/18 06:04:30;;;;;;;5.93;1.23;;;-0.40;99.90;;;;;;5053509;28;20033;-71
2024/01/18 06:06:56;;;;;;;3.25;1.30;;;-0.40;99.90;;;;;;5037140;28;20475;-71
2024/01/18 06:09:21;;;;;;;4.50;1.35;;;-0.40;99.90;;;;;;5053610;28;20456;-71
2024/01/18 06:11:48;;;;;;;5.78;1.33;;;-0.40;99.90;;;;;;5053638;28;20041;-72
2024/01/18 06:14:15;;;;;;;9.02;1.30;;;-0.30;99.90;;;;;;5053434;28;20545;-71
2024/01/18 06:16:41;;;;;;;2.53;1.25;;;-0.40;99.90;;;;;;5053849;28;20085;-71
2024/01/18 06:19:07;;;;;;;4.07;1.13;;;-0.40;99.90;;;;;;5035528;28;20049;-71
2024/01/18 06:21:33;;;;;;;4.60;1.30;;;-0.30;99.90;;;;;;5072308;28;20095;-72
2024/01/18 06:23:58;;;;;;;4.55;1.20;;;0.00;99.90;;;;;;5050505;28;20069;-71
2024/01/18 06:26:24;;;;;;;3.65;1.52;;;-0.30;99.90;;;;;;5043491;28;20033;-71
2024/01/18 06:28:50;;;;;;;6.30;1.70;;;-0.30;99.90;;;;;;5064763;28;20083;-71
2024/01/18 06:31:17;;;;;;;2.95;1.20;;;-0.40;99.90;;;;;;5036505;28;20042;-71
2024/01/18 06:33:42;;;;;;;6.43;1.25;;;-0.40;99.90;;;;;;5030670;28;20081;-71
2024/01/18 06:36:09;;;;;;;7.13;1.55;;;0.10;99.90;;;;;;5042338;28;20036;-71
2024/01/18 06:38:35;;;;;;;3.83;1.90;;;-0.40;99.90;;;;;;5064117;28;20501;-72
2024/01/18 06:41:01;;;;;;;3.95;2.08;;;-0.40;99.90;;;;;;5039077;28;20045;-71
2024/01/18 06:43:26;;;;;;;3.83;1.60;;;-0.30;99.90;;;;;;5052923;28;20055;-70
2024/01/18 06:45:55;;;;;;;4.20;1.63;;;-0.40;99.90;;;;;;5053365;28;20041;-70
2024/01/18 06:48:24;;;;;;;5.30;1.58;;;-0.40;99.90;;;;;;5081315;28;20040;-71
2024/01/18 06:50:53;;;;;;;4.15;1.55;;;0.00;99.90;;;;;;5086590;28;20040;-70
2024/01/18 06:53:19;;;;;;;7.05;1.70;;;-0.40;99.90;;;;;;5054011;28;20143;-71
2024/01/18 06:55:45;;;;;;;8.15;1.80;;;-0.40;99.90;;;;;;5053252;28;20478;-70
2024/01/18 06:58:11;;;;;;;4.15;1.60;;;-0.40;99.90;;;;;;5036373;28;20048;-70
2024/01/18 07:00:36;;;;;;;8.80;1.50;;;0.00;99.90;;;;;;5053937;28;20179;-70
2024/01/18 07:03:02;;;;;;;6.18;1.73;;;-0.30;99.90;;;;;;5048879;28;20033;-71
2024/01/18 07:05:28;;;;;;;5.78;1.60;;;-0.20;99.90;;;;;;5032898;28;20113;-71
2024/01/18 07:07:54;;;;;;;6.03;1.70;;;-0.20;99.90;;;;;;5038738;28;20124;-72
2024/01/18 07:10:22;;;;;;;6.10;1.77;;;0.40;99.90;;;;;;5033995;28;20044;-72
2024/01/18 07:12:48;;;;;;;3.35;1.40;;;-0.10;99.90;;;;;;5040761;28;20091;-71
2024/01/18 07:15:14;;;;;;;7.60;1.85;;;-0.10;99.90;;;;;;5044557;28;20355;-71
2024/01/18 07:17:40;;;;;;;4.70;1.70;;;-0.10;99.90;;;;;;5041992;28;20504;-71
2024/01/18 07:20:06;;;;;;;6.70;1.70;;;-0.10;99.90;;;;;;5066310;28;20049;-71
2024/01/18 07:22:32;;;;;;;6.10;2.17;;;-0.20;99.90;;;;;;5036219;28;20041;-71
2024/01/18 07:24:58;;;;;;;5.63;1.95;;;-0.20;99.90;;;;;;5079382;28;20029;-71
2024/01/18 07:27:24;;;;;;;9.50;2.63;;;-0.20;99.90;;;;;;5049750;28;20413;-71
2024/01/18 07:29:50;;;;;;;5.57;2.00;;;-0.30;99.90;;;;;;5023013;28;20045;-71
2024/01/18 07:32:16;;;;;;;4.13;1.70;;;0.30;99.90;;;;;;5068446;28;20424;-72
2024/01/18 07:34:42;;;;;;;6.97;1.80;;;-0.20;99.90;;;;;;5044029;28;20049;-72
2024/01/18 07:37:12;;;;;;;10.85;2.25;;;0.40;99.90;;;;;;5052543;28;20359;-73
2024/01/18 07:39:38;;;;;;;5.28;2.03;;;-0.20;99.90;;;;;;5062853;28;20068;-72
2024/01/18 07:42:03;;;;;;;6.10;2.03;;;-0.20;99.90;;;;;;5044609;28;20109;-73
2024/01/18 07:44:29;;;;;;;5.60;2.17;;;-0.20;99.90;;;;;;5049737;28;20060;-73
2024/01/18 07:46:55;;;;;;;3.88;1.85;;;-0.20;99.90;;;;;;5052215;28;20144;-72
2024/01/18 07:49:21;;;;;;;9.40;2.13;;;0.40;99.90;;;;;;5036477;28;20163;-72
2024/01/18 07:51:48;;;;;;;10.10;1.98;;;0.50;99.90;;;;;;5031980;28;20345;-73
2024/01/18 07:54:13;;;;;;;5.60;1.73;;;-0.20;99.90;;;;;;5059529;28;20538;-73
2024/01/18 07:56:39;;;;;;;13.88;2.20;;;-0.20;99.90;;;;;;5057661;28;20128;-72
2024/01/18 07:59:05;;;;;;;6.75;1.90;;;-0.10;99.90;;;;;;5032128;28;20056;-73
2024/01/18 08:01:30;;;;;;;4.18;1.60;;;-0.10;99.90;;;;;;5058265;28;20060;-73
2024/01/18 08:03:56;;;;;;;9.55;2.08;;;-0.10;99.90;;;;;;5050266;28;20033;-73
2024/01/18 08:06:22;;;;;;;4.53;1.73;;;-0.10;99.90;;;;;;5049800;28;20041;-73
2024/01/18 08:08:48;;;;;;;7.25;1.83;;;-0.10;99.90;;;;;;5042094;28;20046;-72
2024/01/18 08:11:14;;;;;;;9.52;2.13;;;0.00;99.90;;;;;;5065294;28;20116;-71
2024/01/18 08:13:40;;;;;;;9.25;1.75;;;0.70;99.90;;;;;;5071164;28;20040;-73
2024/01/18 08:16:10;;;;;;;5.22;1.92;;;-0.20;99.90;;;;;;5039095;28;20081;-72
2024/01/18 08:18:36;;;;;;;6.65;1.70;;;0.10;99.90;;;;;;5049390;28;20049;-73
2024/01/18 08:21:02;;;;;;;5.75;2.03;;;-0.20;99.90;;;;;;5022622;28;20046;-73
2024/01/18 08:23:28;;;;;;;4.43;1.63;;;-0.20;99.90;;;;;;5049583;28;20075;-72
2024/01/18 08:25:54;;;;;;;6.88;2.00;;;-0.10;99.90;;;;;;5059144;28;20539;-73
2024/01/18 08:28:21;;;;;;;5.68;2.00;;;0.00;99.90;;;;;;5063227;28;20029;-70
2024/01/18 08:30:47;;;;;;;13.43;7.70;;;-0.10;99.90;;;;;;5059284;28;20432;-70
2024/01/18 08:33:14;;;;;;;6.35;2.10;;;-0.10;99.90;;;;;;5060199;28;20075;-71
2024/01/18 08:35:40;;;;;;;5.82;1.90;;;0.00;99.90;;;;;;5043116;28;20143;-70
2024/01/18 08:38:05;;;;;;;4.20;1.75;;;0.00;99.90;;;;;;5038412;28;20084;-70
2024/01/18 08:40:32;;;;;;;4.43;1.70;;;0.10;99.90;;;;;;5039902;28;20078;-73
2024/01/18 08:42:59;;;;;;;6.88;1.88;;;0.10;99.90;;;;;;5046264;28;20080;-69
2024/01/18 08:45:24;;;;;;;5.90;1.50;;;0.20;99.90;;;;;;5037089;28;20412;-70
2024/01/18 08:47:50;;;;;;;5.82;1.98;;;0.30;99.90;;;;;;5032436;28;20044;-69
2024/01/18 08:50:16;;;;;;;4.97;1.50;;;0.30;99.90;;;;;;5032263;28;20041;-69
2024/01/18 08:52:42;;;;;;;4.90;1.88;;;0.30;99.90;;;;;;5037567;28;20052;-69
2024/01/18 08:55:08;;;;;;;4.50;1.98;;;0.30;99.90;;;;;;5031694;28;20328;-69
2024/01/18 08:57:34;;;;;;;2.80;1.60;;;0.40;99.90;;;;;;5067863;28;20075;-70
2024/01/18 09:00:00;;;;;;;6.53;1.90;;;0.40;99.90;;;;;;5055189;28;20077;-70
2024/01/18 09:02:26;;;;;;;8.05;2.15;;;0.40;99.90;;;;;;5033668;28;20084;-70
2024/01/18 09:04:52;;;;;;;6.10;1.63;;;0.30;99.90;;;;;;5032670;28;20352;-72
2024/01/18 09:07:18;;;;;;;10.07;2.15;;;0.40;99.90;;;;;;5040277;28;20183;-69
2024/01/18 09:09:44;;;;;;;6.97;1.60;;;0.40;99.90;;;;;;5037285;28;20171;-69
2024/01/18 09:12:11;;;;;;;3.15;1.60;;;0.50;99.90;;;;;;5048344;28;20470;-68
2024/01/18 09:14:37;;;;;;;3.78;1.30;;;0.60;99.90;;;;;;5043402;28;20049;-72
2024/01/18 09:17:03;;;;;;;3.67;1.70;;;0.60;99.90;;;;;;5031608;28;20394;-69
2024/01/18 09:19:30;;;;;;;4.97;1.42;;;0.60;99.90;;;;;;5036377;28;20048;-69
2024/01/18 09:21:56;;;;;;;5.72;1.83;;;0.70;99.90;;;;;;5051187;28;20132;-69
2024/01/18 09:24:23;;;;;;;4.78;1.67;;;1.40;99.90;;;;;;5037120;28;20214;-70
2024/01/18 09:26:49;;;;;;;8.82;1.75;;;0.70;99.90;;;;;;5039215;28;20116;-69
2024/01/18 09:29:14;;;;;;;3.97;1.20;;;0.90;99.90;;;;;;5033428;28;20124;-69
2024/01/18 09:31:40;;;;;;;4.75;1.50;;;0.70;99.90;;;;;;5030726;28;20045;-72
2024/01/18 09:34:06;;;;;;;5.03;1.40;;;0.80;99.90;;;;;;5030591;28;20114;-69
2024/01/18 09:36:32;;;;;;;5.10;1.98;;;0.90;99.90;;;;;;5065449;28;20124;-70
2024/01/18 09:38:57;;;;;;;6.78;1.45;;;1.00;99.90;;;;;;5030847;28;20052;-70
2024/01/18 09:41:26;;;;;;;2.85;1.42;;;0.90;99.90;;;;;;5047715;28;20041;-70
2024/01/18 09:43:55;;;;;;;4.63;1.60;;;1.00;99.90;;;;;;5059294;28;20040;-71
2024/01/18 09:46:22;;;;;;;5.80;1.73;;;1.20;99.90;;;;;;5050599;28;20056;-71
2024/01/18 09:48:48;;;;;;;7.40;1.40;;;1.20;99.90;;;;;;5082869;28;20119;-72
2024/01/18 09:51:15;;;;;;;3.75;1.30;;;1.30;99.90;;;;;;5051780;28;20216;-72
2024/01/18 09:53:48;;;;;;;5.68;1.77;;;1.40;99.90;;;;;;5050336;28;20076;-72
2024/01/18 09:56:31;;;;;;;5.93;1.60;;;1.60;99.90;;;;;;5050307;28;20037;-73
2024/01/18 09:58:58;;;;;;;9.98;1.50;;;1.60;99.90;;;;;;5050201;28;20529;-73
2024/01/18 10:01:24;;;;;;;4.97;1.75;;;1.60;99.90;;;;;;5052918;28;20049;-74
2024/01/18 10:03:51;;;;;;;4.25;1.20;;;1.50;99.90;;;;;;5049774;28;20068;-74
2024/01/18 10:06:17;;;;;;;7.10;1.98;;;1.40;99.90;;;;;;5083594;28;20064;-73
2024/01/18 10:08:49;;;;;;;3.92;1.20;;;1.40;99.90;;;;;;5054025;28;20435;-73
2024/01/18 10:11:15;;;;;;;6.68;1.70;;;1.30;99.90;;;;;;5050564;28;20066;-72
2024/01/18 10:13:51;;;;;;;5.10;1.33;;;1.70;99.90;;;;;;5067517;28;20371;-72
2024/01/18 10:16:32;;;;;;;5.88;1.40;;;1.20;99.90;;;;;;5043640;28;20048;-73
2024/01/18 10:19:02;;;;;;;3.30;1.70;;;1.20;99.90;;;;;;5037953;28;20477;-72
2024/01/18 10:21:29;;;;;;;8.10;1.83;;;1.20;99.90;;;;;;5029907;28;20053;-74
2024/01/18 10:23:55;;;;;;;5.20;1.50;;;1.20;99.90;;;;;;5067823;28;20551;-73
2024/01/18 10:26:22;;;;;;;4.70;1.20;;;1.20;99.90;;;;;;5029913;28;20073;-72
2024/01/18 10:28:48;;;;;;;3.08;1.23;;;1.30;99.90;;;;;;5041059;28;20478;-73
2024/01/18 10:31:14;;;;;;;3.15;1.27;;;1.40;99.90;;;;;;5031607;28;20045;-71
2024/01/18 10:33:40;;;;;;;5.43;1.48;;;1.40;99.90;;;;;;5071764;28;20090;-72
2024/01/18 10:36:07;;;;;;;4.38;1.30;;;1.50;99.90;;;;;;5034121;28;20049;-72
2024/01/18 10:38:33;;;;;;;4.43;1.15;;;1.50;99.90;;;;;;5073105;28;20037;-73
2024/01/18 10:40:59;;;;;;;6.97;2.60;;;1.50;99.90;;;;;;5033735;28;20053;-73
2024/01/18 10:43:32;;;;;;;4.78;1.73;;;1.60;99.90;;;;;;5044777;28;20055;-72
2024/01/18 10:45:59;;;;;;;5.07;1.55;;;1.70;99.90;;;;;;5036330;28;20371;-72
2024/01/18 10:48:29;;;;;;;4.57;1.10;;;1.80;99.90;;;;;;5033327;28;20068;-72
2024/01/18 10:50:56;;;;;;;3.17;1.05;;;1.80;99.90;;;;;;5043033;28;20049;-72
2024/01/18 10:53:36;;;;;;;3.85;0.93;;;1.80;99.90;;;;;;5048010;28;20037;-72
2024/01/18 10:56:02;;;;;;;4.85;1.33;;;1.80;99.90;;;;;;5039338;28;20041;-70
2024/01/18 10:58:30;;;;;;;5.30;1.02;;;1.80;99.90;;;;;;5039640;28;20057;-70
2024/01/18 11:00:56;;;;;;;3.90;1.00;;;1.70;99.90;;;;;;5046108;28;20040;-71
2024/01/18 11:03:23;;;;;;;3.55;0.98;;;1.70;99.90;;;;;;5038869;28;20053;-70
2024/01/18 11:05:49;;;;;;;4.55;1.30;;;1.70;99.90;;;;;;5045275;28;20040;-70
2024/01/18 11:08:17;;;;;;;5.47;1.40;;;1.70;99.90;;;;;;5037851;28;20505;-70
2024/01/18 11:10:44;;;;;;;3.28;1.25;;;1.60;99.90;;;;;;5051533;28;20067;-70
2024/01/18 11:13:11;;;;;;;5.43;1.40;;;1.80;99.90;;;;;;5069828;28;20052;-70
2024/01/18 11:15:41;;;;;;;4.80;1.60;;;1.70;99.90;;;;;;5043768;28;20077;-70
2024/01/18 11:18:14;;;;;;;2.75;1.50;;;1.60;99.90;;;;;;5016263;28;20049;-71
2024/01/18 11:21:04;;;;;;;4.70;1.50;;;1.60;99.90;;;;;;5046288;28;20443;-72
2024/01/18 11:23:40;;;;;;;7.45;1.60;;;2.00;99.90;;;;;;5040689;28;20111;-71
2024/01/18 11:26:08;;;;;;;6.15;1.70;;;1.80;99.90;;;;;;5044013;28;20086;-72
2024/01/18 11:28:34;;;;;;;4.07;1.45;;;1.90;99.90;;;;;;5061104;28;20095;-72
2024/01/18 11:31:00;;;;;;;6.05;1.52;;;2.00;99.90;;;;;;5051458;28;20048;-72
2024/01/18 11:33:27;;;;;;;4.55;1.60;;;2.20;99.90;;;;;;5048914;28;20500;-72
2024/01/18 11:35:54;;;;;;;8.75;2.35;;;2.00;99.90;;;;;;5065043;28;20041;-72
2024/01/18 11:38:24;;;;;;;3.42;1.02;;;2.10;99.90;;;;;;5049586;28;20667;-71
2024/01/18 11:40:52;;;;;;;6.47;1.65;;;2.10;99.90;;;;;;5050468;28;20513;-72
2024/01/18 11:43:18;;;;;;;6.28;2.08;;;2.20;99.90;;;;;;5043678;28;20037;-73
2024/01/18 11:45:49;;;;;;;4.50;1.70;;;2.20;99.90;;;;;;5052237;28;20044;-72
2024/01/18 11:48:15;;;;;;;6.53;1.65;;;2.20;99.90;;;;;;5043799;28;20038;-71
2024/01/18 11:50:41;;;;;;;6.97;1.88;;;2.30;99.90;;;;;;5034749;28;20500;-71
2024/01/18 11:53:14;;;;;;;5.72;1.70;;;2.30;99.90;;;;;;5056266;28;20045;-72
2024/01/18 11:55:45;;;;;;;5.07;1.73;;;2.30;99.90;;;;;;5055228;28;20099;-71
2024/01/18 11:58:11;;;;;;;6.22;1.90;;;2.40;99.90;;;;;;5070641;28;20042;-71
2024/01/18 12:00:37;;;;;;;6.47;1.50;;;2.40;99.90;;;;;;5054895;28;20098;-72
2024/01/18 12:03:04;;;;;;;4.47;1.52;;;2.50;99.90;;;;;;5047405;28;20029;-71
2024/01/18 12:05:29;;;;;;;5.07;1.50;;;2.30;99.90;;;;;;5043339;28;20037;-72
2024/01/18 12:07:56;;;;;;;5.18;1.65;;;2.40;99.90;;;;;;5043886;28;20040;-71
2024/01/18 12:10:23;;;;;;;6.22;1.77;;;2.50;99.90;;;;;;5032101;28;20187;-72
2024/01/18 12:12:50;;;;;;;6.43;2.25;;;2.50;99.90;;;;;;5043262;28;20075;-72
2024/01/18 12:15:19;;;;;;;7.70;2.03;;;2.50;99.90;;;;;;5071495;28;20128;-72
2024/01/18 12:17:46;;;;;;;7.53;2.20;;;2.50;99.90;;;;;;5042111;28;20033;-72
2024/01/18 12:20:16;;;;;;;6.82;2.00;;;2.50;99.90;;;;;;5035860;28;20052;-73
2024/01/18 12:22:43;;;;;;;5.97;1.77;;;2.50;99.90;;;;;;5051817;28;20041;-73
2024/01/18 12:25:09;;;;;;;4.35;1.60;;;2.60;99.90;;;;;;5074641;28;20115;-74
2024/01/18 12:27:35;;;;;;;7.20;2.00;;;2.80;99.90;;;;;;5068845;28;20042;-71
2024/01/18 12:30:03;;;;;;;5.03;1.70;;;2.60;99.90;;;;;;5036791;28;20418;-73
2024/01/18 12:32:29;;;;;;;9.98;2.47;;;2.60;99.90;;;;;;5053785;28;20053;-74
2024/01/18 12:34:58;;;;;;;9.93;2.13;;;3.00;99.90;;;;;;5032533;28;20120;-72
2024/01/18 12:37:24;;;;;;;5.07;1.95;;;2.60;99.90;;;;;;5070908;28;20044;-73
2024/01/18 12:39:53;;;;;;;4.22;2.03;;;2.70;99.90;;;;;;5036660;28;20095;-74
2024/01/18 12:42:20;;;;;;;6.95;2.22;;;2.70;99.90;;;;;;5056098;28;20059;-73
2024/01/18 12:44:51;;;;;;;6.53;2.35;;;2.70;99.90;;;;;;5067700;28;20048;-74
2024/01/18 12:47:17;;;;;;;6.22;1.85;;;2.80;99.90;;;;;;5066708;28;20033;-74